sensor_id;sensor_type;location;lat;lon;timestamp;temperature;humidity
10249;DHT22;5169;50.560;9.714;2023-08-07T00:02:08;13.00;99.90
10249;DHT22;5169;50.560;9.714;2023-08-07T00:04:36;13.00;99.90
10249;DHT22;5169;50.560;9.714;2023-08-07T00:07:02;13.00;99.90
10249;DHT22;5169;50.560;9.714;2023-08-07T00:09:27;13.00;99.90
10249;DHT22;5169;50.560;9.714;2023-08-07T00:11:53;13.00;99.90
10249;DHT22;5169;50.560;9.714;2023-08-07T00:14:18;12.90;99.90
10249;DHT22;5169;50.560;9.714;2023-08-07T00:16:44;12.90;99.90
10249;DHT22;5169;50.560;9.714;2023-08-07T00:19:11;12.90;99.90
10249;DHT22;5169;50.560;9.714;2023-08-07T00:21:36;12.90;99.90
10249;DHT22;5169;50.560;9.714;2023-08-07T00:24:03;12.80;99.90
10249;DHT22;5169;50.560;9.714;2023-08-07T00:26:31;12.80;99.90
10249;DHT22;5169;50.560;9.714;2023-08-07T00:28:57;12.80;99.90
10249;DHT22;5169;50.560;9.714;2023-08-07T00:31:25;12.80;99.90
10249;DHT22;5169;50.560;9.714;2023-08-07T00:33:58;12.80;99.90
10249;DHT22;5169;50.560;9.714;2023-08-07T00:36:24;12.70;99.90
10249;DHT22;5169;50.560;9.714;2023-08-07T00:38:50;12.70;99.90
10249;DHT22;5169;50.560;9.714;2023-08-07T00:41:17;12.60;99.90
10249;DHT22;5169;50.560;9.714;2023-08-07T00:43:43;12.70;99.90
10249;DHT22;5169;50.560;9.714;2023-08-07T00:46:09;12.70;99.90
10249;DHT22;5169;50.560;9.714;2023-08-07T00:48:35;12.70;99.90
10249;DHT22;5169;50.560;9.714;2023-08-07T00:51:01;12.70;99.90
10249;DHT22;5169;50.560;9.714;2023-08-07T00:53:27;12.60;99.90
10249;DHT22;5169;50.560;9.714;2023-08-07T00:55:53;12.70;99.90
10249;DHT22;5169;50.560;9.714;2023-08-07T00:58:21;12.60;99.90
10249;DHT22;5169;50.560;9.714;2023-08-07T01:00:49;12.70;99.90
10249;DHT22;5169;50.560;9.714;2023-08-07T01:03:17;12.60;99.90
10249;DHT22;5169;50.560;9.714;2023-08-07T01:05:42;12.60;99.90
10249;DHT22;5169;50.560;9.714;2023-08-07T01:08:08;12.60;99.90
10249;DHT22;5169;50.560;9.714;2023-08-07T01:16:16;12.60;99.90
10249;DHT22;5169;50.560;9.714;2023-08-07T01:18:45;12.60;99.90
10249;DHT22;5169;50.560;9.714;2023-08-07T01:21:19;12.60;99.90
10249;DHT22;5169;50.560;9.714;2023-08-07T01:23:47;12.60;99.90
10249;DHT22;5169;50.560;9.714;2023-08-07T01:26:13;12.60;99.90
10249;DHT22;5169;50.560;9.714;2023-08-07T01:29:06;12.50;99.90
10249;DHT22;5169;50.560;9.714;2023-08-07T01:31:38;12.60;99.90
10249;DHT22;5169;50.560;9.714;2023-08-07T01:34:07;12.60;99.90
10249;DHT22;5169;50.560;9.714;2023-08-07T01:36:36;12.60;99.90
10249;DHT22;5169;50.560;9.714;2023-08-07T01:39:04;12.60;99.90
10249;DHT22;5169;50.560;9.714;2023-08-07T01:41:35;12.60;99.90
10249;DHT22;5169;50.560;9.714;2023-08-07T01:44:01;12.60;99.90
10249;DHT22;5169;50.560;9.714;2023-08-07T01:46:27;12.60;99.90
10249;DHT22;5169;50.560;9.714;2023-08-07T01:48:52;12.60;99.90
10249;DHT22;5169;50.560;9.714;2023-08-07T01:51:20;12.60;99.90
10249;DHT22;5169;50.560;9.714;2023-08-07T01:53:45;12.60;99.90
10249;DHT22;5169;50.560;9.714;2023-08-07T01:56:13;12.60;99.90
10249;DHT22;5169;50.560;9.714;2023-08-07T01:58:38;12.60;99.90
10249;DHT22;5169;50.560;9.714;2023-08-07T02:01:04;12.60;99.90
10249;DHT22;5169;50.560;9.714;2023-08-07T02:03:32;12.50;99.90
10249;DHT22;5169;50.560;9.714;2023-08-07T02:05:57;12.60;99.90
10249;DHT22;5169;50.560;9.714;2023-08-07T02:08:23;12.50;99.90
10249;DHT22;5169;50.560;9.714;2023-08-07T02:10:48;12.50;99.90
10249;DHT22;5169;50.560;9.714;2023-08-07T02:13:14;12.50;99.90
10249;DHT22;5169;50.560;9.714;2023-08-07T02:15:40;12.50;99.90
10249;DHT22;5169;50.560;9.714;2023-08-07T02:18:05;12.50;99.90
10249;DHT22;5169;50.560;9.714;2023-08-07T02:20:31;12.50;99.90
10249;DHT22;5169;50.560;9.714;2023-08-07T02:22:57;12.50;99.90
10249;DHT22;5169;50.560;9.714;2023-08-07T02:25:22;12.50;99.90
10249;DHT22;5169;50.560;9.714;2023-08-07T02:27:48;12.40;99.90
10249;DHT22;5169;50.560;9.714;2023-08-07T02:30:14;12.50;99.90
10249;DHT22;5169;50.560;9.714;2023-08-07T02:32:39;12.50;99.90
10249;DHT22;5169;50.560;9.714;2023-08-07T02:35:09;12.50;99.90
10249;DHT22;5169;50.560;9.714;2023-08-07T02:37:35;12.50;99.90
10249;DHT22;5169;50.560;9.714;2023-08-07T02:40:00;12.50;99.90
10249;DHT22;5169;50.560;9.714;2023-08-07T02:42:26;12.40;99.90
10249;DHT22;5169;50.560;9.714;2023-08-07T02:44:51;12.40;99.90
10249;DHT22;5169;50.560;9.714;2023-08-07T02:47:17;12.40;99.90
10249;DHT22;5169;50.560;9.714;2023-08-07T02:49:42;12.40;99.90
10249;DHT22;5169;50.560;9.714;2023-08-07T02:52:08;12.40;99.90
10249;DHT22;5169;50.560;9.714;2023-08-07T02:54:33;12.40;99.90
10249;DHT22;5169;50.560;9.714;2023-08-07T02:56:59;12.40;99.90
10249;DHT22;5169;50.560;9.714;2023-08-07T02:59:27;12.40;99.90
10249;DHT22;5169;50.560;9.714;2023-08-07T03:01:52;12.30;99.90
10249;DHT22;5169;50.560;9.714;2023-08-07T03:04:18;12.30;99.90
10249;DHT22;5169;50.560;9.714;2023-08-07T03:06:43;12.30;99.90
10249;DHT22;5169;50.560;9.714;2023-08-07T03:09:09;12.30;99.90
10249;DHT22;5169;50.560;9.714;2023-08-07T03:11:35;12.30;99.90
10249;DHT22;5169;50.560;9.714;2023-08-07T03:14:01;12.40;99.90
10249;DHT22;5169;50.560;9.714;2023-08-07T03:16:27;12.40;99.90
10249;DHT22;5169;50.560;9.714;2023-08-07T03:18:52;12.40;99.90
10249;DHT22;5169;50.560;9.714;2023-08-07T03:21:18;12.40;99.90
10249;DHT22;5169;50.560;9.714;2023-08-07T03:23:46;12.40;99.90
10249;DHT22;5169;50.560;9.714;2023-08-07T03:26:14;12.40;99.90
10249;DHT22;5169;50.560;9.714;2023-08-07T03:28:40;12.30;99.90
10249;DHT22;5169;50.560;9.714;2023-08-07T03:31:06;12.30;99.90
10249;DHT22;5169;50.560;9.714;2023-08-07T03:33:31;12.30;99.90
10249;DHT22;5169;50.560;9.714;2023-08-07T03:35:57;12.30;99.90
10249;DHT22;5169;50.560;9.714;2023-08-07T03:38:23;12.30;99.90
10249;DHT22;5169;50.560;9.714;2023-08-07T03:40:49;12.30;99.90
10249;DHT22;5169;50.560;9.714;2023-08-07T03:43:15;12.30;99.90
10249;DHT22;5169;50.560;9.714;2023-08-07T03:45:40;12.30;99.90
10249;DHT22;5169;50.560;9.714;2023-08-07T03:48:08;12.30;99.90
10249;DHT22;5169;50.560;9.714;2023-08-07T03:50:34;12.30;99.90
10249;DHT22;5169;50.560;9.714;2023-08-07T03:53:02;12.30;99.90
10249;DHT22;5169;50.560;9.714;2023-08-07T03:55:28;12.40;99.90
10249;DHT22;5169;50.560;9.714;2023-08-07T03:57:56;12.40;99.90
10249;DHT22;5169;50.560;9.714;2023-08-07T04:00:24;12.30;99.90
10249;DHT22;5169;50.560;9.714;2023-08-07T04:02:49;12.30;99.90
10249;DHT22;5169;50.560;9.714;2023-08-07T04:05:15;12.30;99.90
10249;DHT22;5169;50.560;9.714;2023-08-07T04:07:40;12.40;99.90
10249;DHT22;5169;50.560;9.714;2023-08-07T04:10:06;12.40;99.90
10249;DHT22;5169;50.560;9.714;2023-08-07T04:12:32;12.40;99.90
10249;DHT22;5169;50.560;9.714;2023-08-07T04:14:57;12.30;99.90
10249;DHT22;5169;50.560;9.714;2023-08-07T04:17:23;12.30;99.90
10249;DHT22;5169;50.560;9.714;2023-08-07T04:19:49;12.40;99.90
10249;DHT22;5169;50.560;9.714;2023-08-07T04:22:14;12.40;99.90
10249;DHT22;5169;50.560;9.714;2023-08-07T04:24:40;12.40;99.90
10249;DHT22;5169;50.560;9.714;2023-08-07T04:27:05;12.40;99.90
10249;DHT22;5169;50.560;9.714;2023-08-07T04:29:31;12.40;99.90
10249;DHT22;5169;50.560;9.714;2023-08-07T04:31:56;12.30;99.90
10249;DHT22;5169;50.560;9.714;2023-08-07T04:34:22;12.30;99.90
10249;DHT22;5169;50.560;9.714;2023-08-07T04:36:48;12.40;99.90
10249;DHT22;5169;50.560;9.714;2023-08-07T04:39:15;12.40;99.90
10249;DHT22;5169;50.560;9.714;2023-08-07T04:41:41;12.40;99.90
10249;DHT22;5169;50.560;9.714;2023-08-07T04:44:09;12.40;99.90
10249;DHT22;5169;50.560;9.714;2023-08-07T04:46:37;12.30;99.90
10249;DHT22;5169;50.560;9.714;2023-08-07T04:49:02;12.30;99.90
10249;DHT22;5169;50.560;9.714;2023-08-07T04:51:31;12.30;99.90
10249;DHT22;5169;50.560;9.714;2023-08-07T04:53:56;12.40;99.90
10249;DHT22;5169;50.560;9.714;2023-08-07T04:56:26;12.30;99.90
10249;DHT22;5169;50.560;9.714;2023-08-07T04:58:56;12.30;99.90
10249;DHT22;5169;50.560;9.714;2023-08-07T05:01:24;12.30;99.90
10249;DHT22;5169;50.560;9.714;2023-08-07T05:03:49;12.30;99.90
10249;DHT22;5169;50.560;9.714;2023-08-07T05:06:15;12.30;99.90
10249;DHT22;5169;50.560;9.714;2023-08-07T05:08:40;12.30;99.90
10249;DHT22;5169;50.560;9.714;2023-08-07T05:11:06;12.30;99.90
10249;DHT22;5169;50.560;9.714;2023-08-07T05:13:31;12.40;99.90
10249;DHT22;5169;50.560;9.714;2023-08-07T05:15:57;12.30;99.90
10249;DHT22;5169;50.560;9.714;2023-08-07T05:18:23;12.40;99.90
10249;DHT22;5169;50.560;9.714;2023-08-07T05:20:50;12.30;99.90
10249;DHT22;5169;50.560;9.714;2023-08-07T05:23:16;12.30;99.90
10249;DHT22;5169;50.560;9.714;2023-08-07T05:25:44;12.40;99.90
10249;DHT22;5169;50.560;9.714;2023-08-07T05:28:12;12.30;99.90
10249;DHT22;5169;50.560;9.714;2023-08-07T05:30:40;12.30;99.90
10249;DHT22;5169;50.560;9.714;2023-08-07T05:33:05;12.30;99.90
10249;DHT22;5169;50.560;9.714;2023-08-07T05:35:31;12.40;99.90
10249;DHT22;5169;50.560;9.714;2023-08-07T05:37:56;12.30;99.90
10249;DHT22;5169;50.560;9.714;2023-08-07T05:40:22;12.30;99.90
10249;DHT22;5169;50.560;9.714;2023-08-07T05:42:48;12.30;99.90
10249;DHT22;5169;50.560;9.714;2023-08-07T05:45:13;12.30;99.90
10249;DHT22;5169;50.560;9.714;2023-08-07T05:47:41;12.30;99.90
10249;DHT22;5169;50.560;9.714;2023-08-07T05:50:07;12.30;99.90
10249;DHT22;5169;50.560;9.714;2023-08-07T05:52:33;12.30;99.90
10249;DHT22;5169;50.560;9.714;2023-08-07T05:54:58;12.20;99.90
10249;DHT22;5169;50.560;9.714;2023-08-07T05:57:24;12.30;99.90
10249;DHT22;5169;50.560;9.714;2023-08-07T05:59:52;12.30;99.90
10249;DHT22;5169;50.560;9.714;2023-08-07T06:02:18;12.30;99.90
10249;DHT22;5169;50.560;9.714;2023-08-07T06:04:44;12.30;99.90
10249;DHT22;5169;50.560;9.714;2023-08-07T06:07:10;12.30;99.90
10249;DHT22;5169;50.560;9.714;2023-08-07T06:09:36;12.30;99.90
10249;DHT22;5169;50.560;9.714;2023-08-07T06:12:02;12.30;99.90
10249;DHT22;5169;50.560;9.714;2023-08-07T06:14:27;12.30;99.90
10249;DHT22;5169;50.560;9.714;2023-08-07T06:16:54;12.20;99.90
10249;DHT22;5169;50.560;9.714;2023-08-07T06:19:21;12.30;99.90
10249;DHT22;5169;50.560;9.714;2023-08-07T06:21:48;12.30;99.90
10249;DHT22;5169;50.560;9.714;2023-08-07T06:24:13;12.30;99.90
10249;DHT22;5169;50.560;9.714;2023-08-07T06:26:41;12.30;99.90
10249;DHT22;5169;50.560;9.714;2023-08-07T06:29:09;12.30;99.90
10249;DHT22;5169;50.560;9.714;2023-08-07T06:31:35;12.30;99.90
10249;DHT22;5169;50.560;9.714;2023-08-07T06:34:03;12.40;99.90
10249;DHT22;5169;50.560;9.714;2023-08-07T06:36:31;12.40;99.90
10249;DHT22;5169;50.560;9.714;2023-08-07T06:38:58;12.30;99.90
10249;DHT22;5169;50.560;9.714;2023-08-07T06:41:26;12.30;99.90
10249;DHT22;5169;50.560;9.714;2023-08-07T06:43:52;12.40;99.90
10249;DHT22;5169;50.560;9.714;2023-08-07T06:46:17;12.40;99.90
10249;DHT22;5169;50.560;9.714;2023-08-07T06:48:43;12.40;99.90
10249;DHT22;5169;50.560;9.714;2023-08-07T06:51:11;12.40;99.90
10249;DHT22;5169;50.560;9.714;2023-08-07T06:53:37;12.40;99.90
10249;DHT22;5169;50.560;9.714;2023-08-07T06:56:05;12.40;99.90
10249;DHT22;5169;50.560;9.714;2023-08-07T06:58:30;12.50;99.90
10249;DHT22;5169;50.560;9.714;2023-08-07T07:00:56;12.50;99.90
10249;DHT22;5169;50.560;9.714;2023-08-07T07:03:21;12.50;99.90
10249;DHT22;5169;50.560;9.714;2023-08-07T07:05:49;12.50;99.90
10249;DHT22;5169;50.560;9.714;2023-08-07T07:08:14;12.50;99.90
10249;DHT22;5169;50.560;9.714;2023-08-07T07:10:42;12.50;99.90
